sensor_id;sensor_type;location;lat;lon;timestamp;P1;durP1;ratioP1;P2;durP2;ratioP2
795;SDS011;381;48.770;9.188;2022-09-17T00:04:01;2.50;;;2.30;;
795;SDS011;381;48.770;9.188;2022-09-17T00:09:05;2.23;;;2.13;;
795;SDS011;381;48.770;9.188;2022-09-17T00:14:11;2.50;;;2.40;;
795;SDS011;381;48.770;9.188;2022-09-17T00:19:15;3.07;;;2.57;;
795;SDS011;381;48.770;9.188;2022-09-17T00:24:19;2.17;;;2.07;;
795;SDS011;381;48.770;9.188;2022-09-17T00:29:23;2.70;;;2.50;;
795;SDS011;381;48.770;9.188;2022-09-17T00:34:25;2.83;;;2.63;;
795;SDS011;381;48.770;9.188;2022-09-17T00:39:27;3.10;;;2.90;;
795;SDS011;381;48.770;9.188;2022-09-17T00:44:44;3.20;;;3.00;;
795;SDS011;381;48.770;9.188;2022-09-17T00:49:50;3.00;;;2.90;;
795;SDS011;381;48.770;9.188;2022-09-17T00:54:57;3.50;;;3.20;;
795;SDS011;381;48.770;9.188;2022-09-17T01:00:05;3.60;;;3.30;;
795;SDS011;381;48.770;9.188;2022-09-17T01:05:08;3.30;;;3.10;;
795;SDS011;381;48.770;9.188;2022-09-17T01:10:15;3.40;;;3.20;;
795;SDS011;381;48.770;9.188;2022-09-17T01:15:31;4.20;;;3.23;;
795;SDS011;381;48.770;9.188;2022-09-17T01:20:53;3.20;;;3.10;;
795;SDS011;381;48.770;9.188;2022-09-17T01:26:25;3.13;;;3.03;;
795;SDS011;381;48.770;9.188;2022-09-17T01:31:48;3.30;;;3.20;;
795;SDS011;381;48.770;9.188;2022-09-17T01:36:59;3.50;;;3.30;;
795;SDS011;381;48.770;9.188;2022-09-17T01:42:07;3.93;;;3.60;;
795;SDS011;381;48.770;9.188;2022-09-17T01:47:18;3.90;;;3.60;;
795;SDS011;381;48.770;9.188;2022-09-17T01:52:23;3.10;;;3.00;;
795;SDS011;381;48.770;9.188;2022-09-17T01:57:28;3.70;;;3.40;;
795;SDS011;381;48.770;9.188;2022-09-17T02:02:35;4.33;;;3.67;;
795;SDS011;381;48.770;9.188;2022-09-17T02:07:41;3.57;;;3.27;;
795;SDS011;381;48.770;9.188;2022-09-17T02:12:48;3.50;;;3.30;;
795;SDS011;381;48.770;9.188;2022-09-17T02:17:55;9.50;;;3.93;;
795;SDS011;381;48.770;9.188;2022-09-17T02:23:01;3.97;;;3.30;;
795;SDS011;381;48.770;9.188;2022-09-17T02:28:12;3.50;;;3.30;;
795;SDS011;381;48.770;9.188;2022-09-17T02:33:19;3.20;;;3.10;;
795;SDS011;381;48.770;9.188;2022-09-17T02:38:23;4.03;;;3.83;;
795;SDS011;381;48.770;9.188;2022-09-17T02:43:27;3.90;;;3.60;;
795;SDS011;381;48.770;9.188;2022-09-17T02:48:54;5.23;;;3.03;;
795;SDS011;381;48.770;9.188;2022-09-17T02:54:13;2.90;;;2.50;;
795;SDS011;381;48.770;9.188;2022-09-17T02:59:24;3.47;;;3.27;;
795;SDS011;381;48.770;9.188;2022-09-17T03:04:32;3.53;;;3.33;;
795;SDS011;381;48.770;9.188;2022-09-17T03:09:35;3.17;;;2.97;;
795;SDS011;381;48.770;9.188;2022-09-17T03:14:37;5.17;;;3.43;;
795;SDS011;381;48.770;9.188;2022-09-17T03:19:40;5.43;;;3.60;;
795;SDS011;381;48.770;9.188;2022-09-17T03:24:42;3.10;;;2.80;;
795;SDS011;381;48.770;9.188;2022-09-17T03:29:44;6.87;;;3.30;;
795;SDS011;381;48.770;9.188;2022-09-17T03:34:48;5.93;;;4.90;;
795;SDS011;381;48.770;9.188;2022-09-17T03:39:50;3.77;;;3.50;;
795;SDS011;381;48.770;9.188;2022-09-17T03:44:52;3.60;;;3.30;;
795;SDS011;381;48.770;9.188;2022-09-17T03:49:55;4.30;;;3.90;;
795;SDS011;381;48.770;9.188;2022-09-17T03:54:57;4.57;;;3.90;;
795;SDS011;381;48.770;9.188;2022-09-17T03:59:59;4.17;;;3.80;;
795;SDS011;381;48.770;9.188;2022-09-17T04:05:13;4.77;;;4.40;;
795;SDS011;381;48.770;9.188;2022-09-17T04:10:15;7.10;;;4.17;;
795;SDS011;381;48.770;9.188;2022-09-17T04:15:17;5.43;;;3.73;;
795;SDS011;381;48.770;9.188;2022-09-17T04:20:21;3.80;;;3.50;;
795;SDS011;381;48.770;9.188;2022-09-17T04:25:23;4.03;;;3.30;;
795;SDS011;381;48.770;9.188;2022-09-17T04:30:25;4.47;;;4.23;;
795;SDS011;381;48.770;9.188;2022-09-17T04:35:28;4.70;;;4.30;;
795;SDS011;381;48.770;9.188;2022-09-17T04:40:31;3.77;;;3.57;;
795;SDS011;381;48.770;9.188;2022-09-17T04:45:33;4.63;;;4.17;;
795;SDS011;381;48.770;9.188;2022-09-17T04:50:36;4.23;;;3.77;;
795;SDS011;381;48.770;9.188;2022-09-17T04:55:38;4.50;;;4.10;;
795;SDS011;381;48.770;9.188;2022-09-17T05:00:40;6.30;;;3.50;;
795;SDS011;381;48.770;9.188;2022-09-17T05:05:44;4.20;;;3.90;;
795;SDS011;381;48.770;9.188;2022-09-17T05:10:46;8.13;;;4.40;;
795;SDS011;381;48.770;9.188;2022-09-17T05:15:49;4.00;;;3.63;;
795;SDS011;381;48.770;9.188;2022-09-17T05:20:53;6.10;;;4.33;;
795;SDS011;381;48.770;9.188;2022-09-17T05:25:56;3.77;;;3.20;;
795;SDS011;381;48.770;9.188;2022-09-17T05:30:59;7.37;;;3.87;;
795;SDS011;381;48.770;9.188;2022-09-17T05:36:03;6.60;;;5.87;;
795;SDS011;381;48.770;9.188;2022-09-17T05:41:06;8.10;;;4.17;;
795;SDS011;381;48.770;9.188;2022-09-17T05:46:08;4.83;;;4.23;;
795;SDS011;381;48.770;9.188;2022-09-17T05:51:12;4.90;;;4.60;;
795;SDS011;381;48.770;9.188;2022-09-17T05:56:17;4.97;;;4.50;;
795;SDS011;381;48.770;9.188;2022-09-17T06:01:21;5.40;;;4.20;;
795;SDS011;381;48.770;9.188;2022-09-17T06:06:24;7.00;;;3.70;;
795;SDS011;381;48.770;9.188;2022-09-17T06:11:30;4.03;;;3.60;;
795;SDS011;381;48.770;9.188;2022-09-17T06:16:32;5.40;;;4.90;;
795;SDS011;381;48.770;9.188;2022-09-17T06:21:36;5.33;;;4.90;;
795;SDS011;381;48.770;9.188;2022-09-17T06:26:38;5.60;;;4.57;;
795;SDS011;381;48.770;9.188;2022-09-17T06:31:40;5.93;;;4.77;;
795;SDS011;381;48.770;9.188;2022-09-17T06:36:45;5.03;;;4.67;;
795;SDS011;381;48.770;9.188;2022-09-17T06:41:48;4.83;;;4.33;;
795;SDS011;381;48.770;9.188;2022-09-17T06:46:50;5.93;;;4.47;;
795;SDS011;381;48.770;9.188;2022-09-17T06:51:54;4.90;;;4.60;;
795;SDS011;381;48.770;9.188;2022-09-17T06:56:56;4.53;;;4.13;;
795;SDS011;381;48.770;9.188;2022-09-17T07:01:58;3.80;;;3.53;;
795;SDS011;381;48.770;9.188;2022-09-17T07:07:01;4.40;;;3.57;;
795;SDS011;381;48.770;9.188;2022-09-17T07:12:06;3.90;;;3.60;;
795;SDS011;381;48.770;9.188;2022-09-17T07:17:08;3.90;;;3.40;;
795;SDS011;381;48.770;9.188;2022-09-17T07:22:12;5.73;;;3.23;;
795;SDS011;381;48.770;9.188;2022-09-17T07:27:14;3.90;;;3.60;;
795;SDS011;381;48.770;9.188;2022-09-17T07:32:16;4.10;;;3.80;;
795;SDS011;381;48.770;9.188;2022-09-17T07:37:20;2.87;;;2.63;;
795;SDS011;381;48.770;9.188;2022-09-17T07:42:22;5.00;;;4.60;;
795;SDS011;381;48.770;9.188;2022-09-17T07:47:24;6.00;;;5.60;;
795;SDS011;381;48.770;9.188;2022-09-17T07:52:27;5.63;;;5.00;;
795;SDS011;381;48.770;9.188;2022-09-17T07:57:29;6.20;;;5.80;;
795;SDS011;381;48.770;9.188;2022-09-17T08:02:31;4.80;;;4.27;;
795;SDS011;381;48.770;9.188;2022-09-17T08:07:35;7.30;;;6.80;;
795;SDS011;381;48.770;9.188;2022-09-17T08:12:37;7.03;;;6.50;;
795;SDS011;381;48.770;9.188;2022-09-17T08:17:41;8.00;;;7.47;;
795;SDS011;381;48.770;9.188;2022-09-17T08:22:45;7.60;;;7.10;;
795;SDS011;381;48.770;9.188;2022-09-17T08:27:47;6.70;;;6.30;;
795;SDS011;381;48.770;9.188;2022-09-17T08:32:49;6.30;;;5.80;;
795;SDS011;381;48.770;9.188;2022-09-17T08:37:54;6.07;;;5.57;;
795;SDS011;381;48.770;9.188;2022-09-17T08:42:57;6.13;;;5.53;;
795;SDS011;381;48.770;9.188;2022-09-17T08:48:02;7.50;;;4.70;;
795;SDS011;381;48.770;9.188;2022-09-17T08:58:49;6.80;;;5.30;;
795;SDS011;381;48.770;9.188;2022-09-17T09:04:11;7.87;;;5.23;;
795;SDS011;381;48.770;9.188;2022-09-17T09:09:48;6.30;;;5.70;;
795;SDS011;381;48.770;9.188;2022-09-17T09:14:55;8.67;;;5.67;;
795;SDS011;381;48.770;9.188;2022-09-17T09:20:00;4.60;;;3.87;;
795;SDS011;381;48.770;9.188;2022-09-17T09:25:09;6.80;;;6.00;;
795;SDS011;381;48.770;9.188;2022-09-17T09:30:19;7.17;;;6.47;;
795;SDS011;381;48.770;9.188;2022-09-17T09:35:23;6.17;;;5.67;;
795;SDS011;381;48.770;9.188;2022-09-17T09:40:30;8.90;;;6.80;;
795;SDS011;381;48.770;9.188;2022-09-17T09:45:41;7.33;;;6.10;;
795;SDS011;381;48.770;9.188;2022-09-17T09:50:59;9.60;;;5.80;;
795;SDS011;381;48.770;9.188;2022-09-17T09:56:20;7.07;;;5.77;;
795;SDS011;381;48.770;9.188;2022-09-17T10:01:33;8.33;;;6.60;;
795;SDS011;381;48.770;9.188;2022-09-17T10:06:39;6.20;;;5.57;;
795;SDS011;381;48.770;9.188;2022-09-17T10:11:42;6.30;;;5.70;;
795;SDS011;381;48.770;9.188;2022-09-17T10:17:11;8.37;;;5.80;;
795;SDS011;381;48.770;9.188;2022-09-17T10:22:24;6.87;;;6.17;;
795;SDS011;381;48.770;9.188;2022-09-17T10:27:31;5.90;;;5.40;;
795;SDS011;381;48.770;9.188;2022-09-17T10:32:36;5.90;;;5.40;;
795;SDS011;381;48.770;9.188;2022-09-17T10:37:41;6.47;;;5.23;;
795;SDS011;381;48.770;9.188;2022-09-17T10:42:47;5.00;;;4.50;;
795;SDS011;381;48.770;9.188;2022-09-17T10:47:50;4.40;;;4.10;;
795;SDS011;381;48.770;9.188;2022-09-17T10:52:53;5.23;;;4.80;;
795;SDS011;381;48.770;9.188;2022-09-17T11:03:25;5.70;;;3.00;;
795;SDS011;381;48.770;9.188;2022-09-17T11:09:01;3.80;;;3.50;;
795;SDS011;381;48.770;9.188;2022-09-17T11:14:14;4.97;;;4.47;;
795;SDS011;381;48.770;9.188;2022-09-17T11:19:26;4.63;;;4.23;;
795;SDS011;381;48.770;9.188;2022-09-17T11:24:49;4.87;;;3.90;;
795;SDS011;381;48.770;9.188;2022-09-17T11:30:08;3.67;;;2.83;;
795;SDS011;381;48.770;9.188;2022-09-17T11:35:18;5.57;;;4.13;;
795;SDS011;381;48.770;9.188;2022-09-17T11:40:23;4.07;;;3.80;;
795;SDS011;381;48.770;9.188;2022-09-17T11:45:31;5.67;;;4.07;;
795;SDS011;381;48.770;9.188;2022-09-17T11:50:38;4.80;;;3.20;;
795;SDS011;381;48.770;9.188;2022-09-17T11:55:46;5.00;;;3.90;;
795;SDS011;381;48.770;9.188;2022-09-17T12:00:53;4.50;;;4.10;;
795;SDS011;381;48.770;9.188;2022-09-17T12:06:02;4.73;;;4.27;;
795;SDS011;381;48.770;9.188;2022-09-17T12:11:10;4.17;;;3.87;;
795;SDS011;381;48.770;9.188;2022-09-17T12:16:19;4.93;;;4.53;;
795;SDS011;381;48.770;9.188;2022-09-17T12:21:28;3.73;;;3.53;;
795;SDS011;381;48.770;9.188;2022-09-17T12:26:48;4.60;;;4.30;;
795;SDS011;381;48.770;9.188;2022-09-17T12:32:00;4.60;;;3.87;;
795;SDS011;381;48.770;9.188;2022-09-17T12:37:12;4.30;;;3.90;;
795;SDS011;381;48.770;9.188;2022-09-17T12:42:23;5.40;;;3.57;;
795;SDS011;381;48.770;9.188;2022-09-17T12:47:46;4.57;;;4.27;;
795;SDS011;381;48.770;9.188;2022-09-17T12:53:07;6.37;;;4.10;;
795;SDS011;381;48.770;9.188;2022-09-17T12:58:19;3.97;;;3.77;;
795;SDS011;381;48.770;9.188;2022-09-17T13:03:33;4.47;;;4.10;;
795;SDS011;381;48.770;9.188;2022-09-17T13:08:48;2.50;;;2.40;;
795;SDS011;381;48.770;9.188;2022-09-17T13:14:04;6.80;;;4.50;;
795;SDS011;381;48.770;9.188;2022-09-17T13:19:21;3.47;;;3.20;;
795;SDS011;381;48.770;9.188;2022-09-17T13:24:31;3.77;;;3.57;;
795;SDS011;381;48.770;9.188;2022-09-17T13:35:05;4.40;;;4.20;;
795;SDS011;381;48.770;9.188;2022-09-17T13:40:45;4.60;;;4.30;;
795;SDS011;381;48.770;9.188;2022-09-17T13:57:06;4.20;;;4.00;;
795;SDS011;381;48.770;9.188;2022-09-17T14:07:35;3.10;;;3.00;;
795;SDS011;381;48.770;9.188;2022-09-17T14:13:21;4.40;;;4.10;;
795;SDS011;381;48.770;9.188;2022-09-17T14:18:44;3.70;;;3.50;;
795;SDS011;381;48.770;9.188;2022-09-17T14:23:58;4.20;;;4.00;;
795;SDS011;381;48.770;9.188;2022-09-17T14:29:05;4.53;;;4.23;;
795;SDS011;381;48.770;9.188;2022-09-17T14:34:17;4.07;;;3.73;;
795;SDS011;381;48.770;9.188;2022-09-17T14:39:21;4.57;;;4.23;;
795;SDS011;381;48.770;9.188;2022-09-17T14:44:26;4.60;;;4.30;;
795;SDS011;381;48.770;9.188;2022-09-17T14:49:34;2.40;;;2.20;;
795;SDS011;381;48.770;9.188;2022-09-17T14:54:37;4.43;;;4.03;;
795;SDS011;381;48.770;9.188;2022-09-17T14:59:46;2.40;;;2.20;;
795;SDS011;381;48.770;9.188;2022-09-17T15:04:50;4.53;;;3.60;;
795;SDS011;381;48.770;9.188;2022-09-17T15:14:59;4.20;;;4.00;;
795;SDS011;381;48.770;9.188;2022-09-17T15:20:02;3.70;;;3.47;;
795;SDS011;381;48.770;9.188;2022-09-17T15:25:07;4.10;;;3.90;;
795;SDS011;381;48.770;9.188;2022-09-17T15:30:15;4.27;;;4.00;;
795;SDS011;381;48.770;9.188;2022-09-17T15:35:21;4.73;;;4.33;;
795;SDS011;381;48.770;9.188;2022-09-17T15:40:28;4.03;;;3.83;;
795;SDS011;381;48.770;9.188;2022-09-17T15:45:33;4.20;;;4.00;;
795;SDS011;381;48.770;9.188;2022-09-17T15:50:48;4.90;;;4.50;;
795;SDS011;381;48.770;9.188;2022-09-17T15:56:02;4.50;;;4.10;;
795;SDS011;381;48.770;9.188;2022-09-17T16:06:56;3.70;;;3.50;;
795;SDS011;381;48.770;9.188;2022-09-17T16:12:00;3.50;;;3.30;;
795;SDS011;381;48.770;9.188;2022-09-17T16:17:16;4.50;;;4.30;;
795;SDS011;381;48.770;9.188;2022-09-17T16:22:27;3.70;;;3.50;;
795;SDS011;381;48.770;9.188;2022-09-17T16:27:30;4.10;;;3.80;;
795;SDS011;381;48.770;9.188;2022-09-17T16:32:37;3.80;;;3.50;;
795;SDS011;381;48.770;9.188;2022-09-17T16:37:39;3.60;;;3.30;;
795;SDS011;381;48.770;9.188;2022-09-17T16:42:41;5.33;;;4.93;;
795;SDS011;381;48.770;9.188;2022-09-17T16:47:44;4.13;;;3.83;;
795;SDS011;381;48.770;9.188;2022-09-17T16:52:46;4.00;;;3.80;;
795;SDS011;381;48.770;9.188;2022-09-17T16:57:48;4.57;;;4.20;;
795;SDS011;381;48.770;9.188;2022-09-17T17:02:52;4.90;;;4.60;;
795;SDS011;381;48.770;9.188;2022-09-17T17:07:56;4.30;;;3.97;;
795;SDS011;381;48.770;9.188;2022-09-17T17:12:58;6.30;;;5.03;;
795;SDS011;381;48.770;9.188;2022-09-17T17:18:01;4.13;;;3.60;;
795;SDS011;381;48.770;9.188;2022-09-17T17:23:04;4.57;;;3.83;;
795;SDS011;381;48.770;9.188;2022-09-17T17:28:06;3.83;;;3.60;;
795;SDS011;381;48.770;9.188;2022-09-17T17:33:09;5.10;;;4.40;;
795;SDS011;381;48.770;9.188;2022-09-17T17:38:11;4.27;;;4.03;;
795;SDS011;381;48.770;9.188;2022-09-17T17:43:13;6.17;;;4.90;;
795;SDS011;381;48.770;9.188;2022-09-17T17:48:17;5.50;;;5.10;;
795;SDS011;381;48.770;9.188;2022-09-17T17:53:19;8.80;;;5.40;;
795;SDS011;381;48.770;9.188;2022-09-17T17:58:21;5.83;;;5.33;;
795;SDS011;381;48.770;9.188;2022-09-17T18:03:24;7.17;;;6.67;;
795;SDS011;381;48.770;9.188;2022-09-17T18:08:27;5.03;;;4.63;;
795;SDS011;381;48.770;9.188;2022-09-17T18:13:29;8.50;;;7.90;;
795;SDS011;381;48.770;9.188;2022-09-17T18:18:34;8.17;;;7.73;;
795;SDS011;381;48.770;9.188;2022-09-17T18:23:37;9.00;;;8.50;;
795;SDS011;381;48.770;9.188;2022-09-17T18:28:40;9.10;;;8.50;;
795;SDS011;381;48.770;9.188;2022-09-17T18:33:44;8.63;;;8.13;;
795;SDS011;381;48.770;9.188;2022-09-17T18:38:46;8.27;;;7.77;;
795;SDS011;381;48.770;9.188;2022-09-17T18:43:48;9.00;;;8.50;;
795;SDS011;381;48.770;9.188;2022-09-17T18:48:52;10.07;;;9.47;;
795;SDS011;381;48.770;9.188;2022-09-17T18:53:54;7.70;;;7.00;;
795;SDS011;381;48.770;9.188;2022-09-17T18:58:58;8.73;;;8.23;;
795;SDS011;381;48.770;9.188;2022-09-17T19:04:02;9.27;;;8.67;;
795;SDS011;381;48.770;9.188;2022-09-17T19:09:07;10.60;;;9.80;;
795;SDS011;381;48.770;9.188;2022-09-17T19:14:10;8.03;;;7.43;;
795;SDS011;381;48.770;9.188;2022-09-17T19:19:14;6.83;;;6.47;;
795;SDS011;381;48.770;9.188;2022-09-17T19:24:16;6.57;;;6.17;;
795;SDS011;381;48.770;9.188;2022-09-17T19:29:18;8.27;;;7.87;;
795;SDS011;381;48.770;9.188;2022-09-17T19:34:21;7.00;;;6.60;;
795;SDS011;381;48.770;9.188;2022-09-17T19:39:24;5.57;;;5.27;;
795;SDS011;381;48.770;9.188;2022-09-17T19:44:26;7.60;;;7.30;;
795;SDS011;381;48.770;9.188;2022-09-17T19:49:30;7.37;;;7.07;;
795;SDS011;381;48.770;9.188;2022-09-17T19:54:32;8.63;;;8.00;;
795;SDS011;381;48.770;9.188;2022-09-17T19:59:34;8.07;;;7.50;;
795;SDS011;381;48.770;9.188;2022-09-17T20:04:38;7.40;;;6.90;;
795;SDS011;381;48.770;9.188;2022-09-17T20:09:40;8.10;;;7.60;;
795;SDS011;381;48.770;9.188;2022-09-17T20:14:42;7.73;;;7.23;;
795;SDS011;381;48.770;9.188;2022-09-17T20:19:45;7.50;;;7.10;;
795;SDS011;381;48.770;9.188;2022-09-17T20:24:47;8.70;;;8.30;;
795;SDS011;381;48.770;9.188;2022-09-17T20:29:49;6.57;;;5.97;;
795;SDS011;381;48.770;9.188;2022-09-17T20:34:53;5.93;;;5.53;;
795;SDS011;381;48.770;9.188;2022-09-17T20:39:55;7.00;;;6.70;;
795;SDS011;381;48.770;9.188;2022-09-17T20:44:57;6.30;;;6.00;;
795;SDS011;381;48.770;9.188;2022-09-17T20:50:00;6.93;;;6.53;;
795;SDS011;381;48.770;9.188;2022-09-17T20:55:03;6.87;;;6.47;;
795;SDS011;381;48.770;9.188;2022-09-17T21:00:06;6.90;;;6.57;;
795;SDS011;381;48.770;9.188;2022-09-17T21:05:19;6.63;;;6.23;;
795;SDS011;381;48.770;9.188;2022-09-17T21:10:21;7.23;;;6.83;;
795;SDS011;381;48.770;9.188;2022-09-17T21:15:23;7.23;;;6.80;;
795;SDS011;381;48.770;9.188;2022-09-17T21:20:26;5.93;;;5.50;;
795;SDS011;381;48.770;9.188;2022-09-17T21:25:28;7.63;;;6.97;;
795;SDS011;381;48.770;9.188;2022-09-17T21:30:30;5.90;;;5.60;;
795;SDS011;381;48.770;9.188;2022-09-17T21:35:34;6.37;;;5.90;;
795;SDS011;381;48.770;9.188;2022-09-17T21:40:36;6.80;;;6.23;;
795;SDS011;381;48.770;9.188;2022-09-17T21:45:38;6.33;;;5.90;;
795;SDS011;381;48.770;9.188;2022-09-17T21:50:41;6.00;;;5.60;;
795;SDS011;381;48.770;9.188;2022-09-17T21:55:43;6.70;;;6.10;;
795;SDS011;381;48.770;9.188;2022-09-17T22:00:45;6.37;;;5.93;;
795;SDS011;381;48.770;9.188;2022-09-17T22:05:50;6.37;;;5.90;;
795;SDS011;381;48.770;9.188;2022-09-17T22:10:52;6.00;;;5.67;;
795;SDS011;381;48.770;9.188;2022-09-17T22:16:00;5.23;;;4.87;;
795;SDS011;381;48.770;9.188;2022-09-17T22:21:11;6.60;;;4.83;;
795;SDS011;381;48.770;9.188;2022-09-17T22:26:15;5.40;;;5.00;;
795;SDS011;381;48.770;9.188;2022-09-17T22:31:18;5.23;;;4.50;;
795;SDS011;381;48.770;9.188;2022-09-17T22:36:24;4.60;;;4.20;;
795;SDS011;381;48.770;9.188;2022-09-17T22:41:28;4.90;;;4.50;;
795;SDS011;381;48.770;9.188;2022-09-17T22:46:32;8.53;;;5.60;;
795;SDS011;381;48.770;9.188;2022-09-17T22:51:37;8.70;;;7.80;;
795;SDS011;381;48.770;9.188;2022-09-17T22:56:40;4.00;;;3.70;;
795;SDS011;381;48.770;9.188;2022-09-17T23:01:43;4.73;;;3.63;;
795;SDS011;381;48.770;9.188;2022-09-17T23:06:46;6.00;;;3.20;;
795;SDS011;381;48.770;9.188;2022-09-17T23:11:48;4.07;;;3.40;;
795;SDS011;381;48.770;9.188;2022-09-17T23:16:51;4.10;;;3.07;;
795;SDS011;381;48.770;9.188;2022-09-17T23:21:54;6.43;;;2.97;;
795;SDS011;381;48.770;9.188;2022-09-17T23:26:56;6.47;;;3.07;;
795;SDS011;381;48.770;9.188;2022-09-17T23:38:15;5.53;;;2.80;;
795;SDS011;381;48.770;9.188;2022-09-17T23:43:17;4.20;;;2.93;;
795;SDS011;381;48.770;9.188;2022-09-17T23:48:19;8.40;;;3.13;;
795;SDS011;381;48.770;9.188;2022-09-17T23:53:22;7.20;;;2.83;;
795;SDS011;381;48.770;9.188;2022-09-17T23:58:25;4.80;;;2.60;;
